sensor_id;sensor_type;location;lat;lon;timestamp;P1;durP1;ratioP1;P2;durP2;ratioP2
4462;SDS011;2244;50.200;8.220;2024-02-23T00:01:10;21.50;;;1.20;;
4462;SDS011;2244;50.200;8.220;2024-02-23T00:03:38;21.00;;;1.00;;
4462;SDS011;2244;50.200;8.220;2024-02-23T00:06:06;22.83;;;1.63;;
4462;SDS011;2244;50.200;8.220;2024-02-23T00:08:35;22.73;;;1.40;;
4462;SDS011;2244;50.200;8.220;2024-02-23T00:11:04;21.97;;;1.20;;
4462;SDS011;2244;50.200;8.220;2024-02-23T00:13:32;22.43;;;1.40;;
4462;SDS011;2244;50.200;8.220;2024-02-23T00:16:00;23.60;;;1.20;;
4462;SDS011;2244;50.200;8.220;2024-02-23T00:18:27;20.73;;;1.20;;
4462;SDS011;2244;50.200;8.220;2024-02-23T00:20:55;22.77;;;2.37;;
4462;SDS011;2244;50.200;8.220;2024-02-23T00:23:23;21.13;;;0.90;;
4462;SDS011;2244;50.200;8.220;2024-02-23T00:25:51;20.07;;;0.73;;
4462;SDS011;2244;50.200;8.220;2024-02-23T00:28:18;19.67;;;0.70;;
4462;SDS011;2244;50.200;8.220;2024-02-23T00:30:46;19.57;;;0.90;;
4462;SDS011;2244;50.200;8.220;2024-02-23T00:33:13;20.07;;;0.80;;
4462;SDS011;2244;50.200;8.220;2024-02-23T00:35:41;19.67;;;0.70;;
4462;SDS011;2244;50.200;8.220;2024-02-23T00:38:08;20.07;;;0.90;;
4462;SDS011;2244;50.200;8.220;2024-02-23T00:40:35;20.60;;;1.00;;
4462;SDS011;2244;50.200;8.220;2024-02-23T00:43:03;19.53;;;0.70;;
4462;SDS011;2244;50.200;8.220;2024-02-23T00:45:31;19.57;;;0.70;;
4462;SDS011;2244;50.200;8.220;2024-02-23T00:47:58;19.70;;;0.80;;
4462;SDS011;2244;50.200;8.220;2024-02-23T00:50:26;20.20;;;0.90;;
4462;SDS011;2244;50.200;8.220;2024-02-23T00:52:54;19.80;;;1.00;;
4462;SDS011;2244;50.200;8.220;2024-02-23T00:55:21;19.20;;;0.70;;
4462;SDS011;2244;50.200;8.220;2024-02-23T00:57:50;20.00;;;0.80;;
4462;SDS011;2244;50.200;8.220;2024-02-23T01:00:18;20.60;;;0.70;;
4462;SDS011;2244;50.200;8.220;2024-02-23T01:02:45;20.13;;;0.90;;
4462;SDS011;2244;50.200;8.220;2024-02-23T01:05:13;22.47;;;0.90;;
4462;SDS011;2244;50.200;8.220;2024-02-23T01:07:40;20.13;;;0.90;;
4462;SDS011;2244;50.200;8.220;2024-02-23T01:10:08;20.60;;;1.00;;
4462;SDS011;2244;50.200;8.220;2024-02-23T01:12:36;19.93;;;0.83;;
4462;SDS011;2244;50.200;8.220;2024-02-23T01:15:03;23.00;;;0.93;;
4462;SDS011;2244;50.200;8.220;2024-02-23T01:17:32;22.00;;;0.90;;
4462;SDS011;2244;50.200;8.220;2024-02-23T01:19:59;22.63;;;0.90;;
4462;SDS011;2244;50.200;8.220;2024-02-23T01:22:27;21.13;;;1.00;;
4462;SDS011;2244;50.200;8.220;2024-02-23T01:24:54;19.67;;;0.87;;
4462;SDS011;2244;50.200;8.220;2024-02-23T01:27:22;20.40;;;1.00;;
4462;SDS011;2244;50.200;8.220;2024-02-23T01:29:49;21.57;;;1.00;;
4462;SDS011;2244;50.200;8.220;2024-02-23T01:32:17;20.30;;;0.90;;
4462;SDS011;2244;50.200;8.220;2024-02-23T01:34:44;21.57;;;1.30;;
4462;SDS011;2244;50.200;8.220;2024-02-23T01:37:12;24.13;;;0.90;;
4462;SDS011;2244;50.200;8.220;2024-02-23T01:39:39;20.90;;;1.30;;
4462;SDS011;2244;50.200;8.220;2024-02-23T01:42:07;22.37;;;0.90;;
4462;SDS011;2244;50.200;8.220;2024-02-23T01:44:35;20.57;;;1.03;;
4462;SDS011;2244;50.200;8.220;2024-02-23T01:47:03;23.17;;;1.20;;
4462;SDS011;2244;50.200;8.220;2024-02-23T01:49:30;22.03;;;1.00;;
4462;SDS011;2244;50.200;8.220;2024-02-23T01:52:00;20.50;;;1.00;;
4462;SDS011;2244;50.200;8.220;2024-02-23T01:54:28;22.83;;;1.50;;
4462;SDS011;2244;50.200;8.220;2024-02-23T01:56:56;22.50;;;1.30;;
4462;SDS011;2244;50.200;8.220;2024-02-23T01:59:24;21.90;;;1.50;;
4462;SDS011;2244;50.200;8.220;2024-02-23T02:01:53;20.70;;;1.10;;
4462;SDS011;2244;50.200;8.220;2024-02-23T02:04:20;21.23;;;1.00;;
4462;SDS011;2244;50.200;8.220;2024-02-23T02:06:48;21.80;;;1.10;;
4462;SDS011;2244;50.200;8.220;2024-02-23T02:09:15;21.10;;;1.00;;
4462;SDS011;2244;50.200;8.220;2024-02-23T02:11:46;23.90;;;1.10;;
4462;SDS011;2244;50.200;8.220;2024-02-23T02:14:14;23.03;;;1.37;;
4462;SDS011;2244;50.200;8.220;2024-02-23T02:16:42;22.77;;;1.67;;
4462;SDS011;2244;50.200;8.220;2024-02-23T02:19:10;21.43;;;0.93;;
4462;SDS011;2244;50.200;8.220;2024-02-23T02:21:39;20.13;;;0.90;;
4462;SDS011;2244;50.200;8.220;2024-02-23T02:24:07;20.50;;;1.00;;
4462;SDS011;2244;50.200;8.220;2024-02-23T02:26:36;21.67;;;1.13;;
4462;SDS011;2244;50.200;8.220;2024-02-23T02:29:04;20.80;;;1.10;;
4462;SDS011;2244;50.200;8.220;2024-02-23T02:31:31;22.17;;;1.27;;
4462;SDS011;2244;50.200;8.220;2024-02-23T02:34:00;22.90;;;1.47;;
4462;SDS011;2244;50.200;8.220;2024-02-23T02:36:28;21.47;;;1.40;;
4462;SDS011;2244;50.200;8.220;2024-02-23T02:38:55;23.40;;;1.20;;
4462;SDS011;2244;50.200;8.220;2024-02-23T02:41:23;26.37;;;1.23;;
4462;SDS011;2244;50.200;8.220;2024-02-23T02:43:52;20.87;;;1.07;;
4462;SDS011;2244;50.200;8.220;2024-02-23T02:46:19;22.00;;;1.30;;
4462;SDS011;2244;50.200;8.220;2024-02-23T02:48:47;24.07;;;1.33;;
4462;SDS011;2244;50.200;8.220;2024-02-23T02:51:17;24.77;;;1.20;;
4462;SDS011;2244;50.200;8.220;2024-02-23T02:53:45;20.93;;;0.93;;
4462;SDS011;2244;50.200;8.220;2024-02-23T02:56:12;23.60;;;1.17;;
4462;SDS011;2244;50.200;8.220;2024-02-23T02:58:40;20.70;;;1.00;;
4462;SDS011;2244;50.200;8.220;2024-02-23T03:01:07;21.10;;;1.43;;
4462;SDS011;2244;50.200;8.220;2024-02-23T03:03:35;23.17;;;1.20;;
4462;SDS011;2244;50.200;8.220;2024-02-23T03:06:02;22.53;;;1.20;;
4462;SDS011;2244;50.200;8.220;2024-02-23T03:08:30;24.80;;;1.20;;
4462;SDS011;2244;50.200;8.220;2024-02-23T03:10:57;24.03;;;1.30;;
4462;SDS011;2244;50.200;8.220;2024-02-23T03:13:25;21.07;;;1.40;;
4462;SDS011;2244;50.200;8.220;2024-02-23T03:15:52;27.60;;;1.27;;
4462;SDS011;2244;50.200;8.220;2024-02-23T03:18:20;24.17;;;1.30;;
4462;SDS011;2244;50.200;8.220;2024-02-23T03:20:47;22.37;;;1.00;;
4462;SDS011;2244;50.200;8.220;2024-02-23T03:23:15;21.10;;;1.40;;
4462;SDS011;2244;50.200;8.220;2024-02-23T03:25:42;23.07;;;1.53;;
4462;SDS011;2244;50.200;8.220;2024-02-23T03:28:10;22.00;;;1.40;;
4462;SDS011;2244;50.200;8.220;2024-02-23T03:30:37;21.40;;;1.30;;
4462;SDS011;2244;50.200;8.220;2024-02-23T03:33:05;22.70;;;1.10;;
4462;SDS011;2244;50.200;8.220;2024-02-23T03:35:32;21.97;;;1.30;;
4462;SDS011;2244;50.200;8.220;2024-02-23T03:38:00;23.27;;;1.50;;
4462;SDS011;2244;50.200;8.220;2024-02-23T03:40:28;24.67;;;1.47;;
4462;SDS011;2244;50.200;8.220;2024-02-23T03:42:56;22.50;;;1.10;;
4462;SDS011;2244;50.200;8.220;2024-02-23T03:45:23;22.83;;;1.40;;
4462;SDS011;2244;50.200;8.220;2024-02-23T03:47:51;21.00;;;1.43;;
4462;SDS011;2244;50.200;8.220;2024-02-23T03:50:18;23.17;;;1.30;;
4462;SDS011;2244;50.200;8.220;2024-02-23T03:52:46;22.37;;;1.70;;
4462;SDS011;2244;50.200;8.220;2024-02-23T03:55:13;21.23;;;1.30;;
4462;SDS011;2244;50.200;8.220;2024-02-23T03:57:41;22.90;;;1.60;;
4462;SDS011;2244;50.200;8.220;2024-02-23T04:00:10;20.80;;;1.10;;
4462;SDS011;2244;50.200;8.220;2024-02-23T04:02:38;23.13;;;1.67;;
4462;SDS011;2244;50.200;8.220;2024-02-23T04:05:05;23.37;;;1.30;;
4462;SDS011;2244;50.200;8.220;2024-02-23T04:07:33;22.50;;;1.40;;
4462;SDS011;2244;50.200;8.220;2024-02-23T04:10:01;22.70;;;1.20;;
4462;SDS011;2244;50.200;8.220;2024-02-23T04:12:28;21.43;;;1.27;;
4462;SDS011;2244;50.200;8.220;2024-02-23T04:14:57;22.37;;;1.20;;
4462;SDS011;2244;50.200;8.220;2024-02-23T04:17:25;24.60;;;1.30;;
4462;SDS011;2244;50.200;8.220;2024-02-23T04:19:52;21.27;;;1.07;;
4462;SDS011;2244;50.200;8.220;2024-02-23T04:22:20;20.80;;;1.10;;
4462;SDS011;2244;50.200;8.220;2024-02-23T04:24:47;22.10;;;1.37;;
4462;SDS011;2244;50.200;8.220;2024-02-23T04:27:15;20.37;;;0.97;;
4462;SDS011;2244;50.200;8.220;2024-02-23T04:29:42;21.70;;;1.20;;
4462;SDS011;2244;50.200;8.220;2024-02-23T04:32:10;22.20;;;1.30;;
4462;SDS011;2244;50.200;8.220;2024-02-23T04:34:37;22.63;;;1.60;;
4462;SDS011;2244;50.200;8.220;2024-02-23T04:37:06;25.13;;;1.33;;
4462;SDS011;2244;50.200;8.220;2024-02-23T04:39:34;22.13;;;1.40;;
4462;SDS011;2244;50.200;8.220;2024-02-23T04:42:02;28.77;;;1.40;;
4462;SDS011;2244;50.200;8.220;2024-02-23T04:44:29;22.57;;;1.00;;
4462;SDS011;2244;50.200;8.220;2024-02-23T04:46:57;23.37;;;1.43;;
4462;SDS011;2244;50.200;8.220;2024-02-23T04:49:24;20.80;;;1.60;;
4462;SDS011;2244;50.200;8.220;2024-02-23T04:51:52;26.60;;;1.77;;
4462;SDS011;2244;50.200;8.220;2024-02-23T04:54:20;21.27;;;1.67;;
4462;SDS011;2244;50.200;8.220;2024-02-23T04:56:47;21.40;;;1.17;;
4462;SDS011;2244;50.200;8.220;2024-02-23T04:59:16;24.50;;;1.50;;
4462;SDS011;2244;50.200;8.220;2024-02-23T05:01:43;20.13;;;1.20;;
4462;SDS011;2244;50.200;8.220;2024-02-23T05:04:11;22.10;;;1.27;;
4462;SDS011;2244;50.200;8.220;2024-02-23T05:06:38;24.27;;;1.60;;
4462;SDS011;2244;50.200;8.220;2024-02-23T05:09:06;21.70;;;1.43;;
4462;SDS011;2244;50.200;8.220;2024-02-23T05:11:35;21.47;;;1.30;;
4462;SDS011;2244;50.200;8.220;2024-02-23T05:14:02;24.23;;;1.43;;
4462;SDS011;2244;50.200;8.220;2024-02-23T05:16:30;22.87;;;1.53;;
4462;SDS011;2244;50.200;8.220;2024-02-23T05:18:58;25.60;;;1.40;;
4462;SDS011;2244;50.200;8.220;2024-02-23T05:21:26;22.40;;;1.23;;
4462;SDS011;2244;50.200;8.220;2024-02-23T05:23:53;22.17;;;1.20;;
4462;SDS011;2244;50.200;8.220;2024-02-23T05:26:21;21.47;;;1.40;;
4462;SDS011;2244;50.200;8.220;2024-02-23T05:28:49;21.10;;;1.20;;
4462;SDS011;2244;50.200;8.220;2024-02-23T05:31:16;22.10;;;1.87;;
4462;SDS011;2244;50.200;8.220;2024-02-23T05:33:43;21.10;;;1.10;;
4462;SDS011;2244;50.200;8.220;2024-02-23T05:36:12;26.33;;;1.40;;
4462;SDS011;2244;50.200;8.220;2024-02-23T05:38:40;25.33;;;1.67;;
4462;SDS011;2244;50.200;8.220;2024-02-23T05:41:11;23.47;;;1.50;;
4462;SDS011;2244;50.200;8.220;2024-02-23T05:43:37;22.63;;;1.47;;
4462;SDS011;2244;50.200;8.220;2024-02-23T05:46:05;23.63;;;1.70;;
4462;SDS011;2244;50.200;8.220;2024-02-23T05:48:32;22.13;;;1.50;;
4462;SDS011;2244;50.200;8.220;2024-02-23T05:51:00;27.63;;;1.50;;
4462;SDS011;2244;50.200;8.220;2024-02-23T05:53:30;22.17;;;1.30;;
4462;SDS011;2244;50.200;8.220;2024-02-23T05:55:59;21.90;;;1.30;;
4462;SDS011;2244;50.200;8.220;2024-02-23T05:58:33;24.27;;;1.57;;
4462;SDS011;2244;50.200;8.220;2024-02-23T06:01:00;23.07;;;1.30;;
4462;SDS011;2244;50.200;8.220;2024-02-23T06:03:28;20.53;;;1.40;;
4462;SDS011;2244;50.200;8.220;2024-02-23T06:05:56;22.97;;;1.50;;
4462;SDS011;2244;50.200;8.220;2024-02-23T06:08:23;21.00;;;1.03;;
4462;SDS011;2244;50.200;8.220;2024-02-23T06:10:51;21.80;;;1.20;;
4462;SDS011;2244;50.200;8.220;2024-02-23T06:13:18;22.10;;;1.40;;
4462;SDS011;2244;50.200;8.220;2024-02-23T06:15:46;22.10;;;1.60;;
4462;SDS011;2244;50.200;8.220;2024-02-23T06:18:13;22.33;;;1.40;;
4462;SDS011;2244;50.200;8.220;2024-02-23T06:20:41;21.63;;;1.40;;
4462;SDS011;2244;50.200;8.220;2024-02-23T06:23:08;21.87;;;1.40;;
4462;SDS011;2244;50.200;8.220;2024-02-23T06:25:36;22.27;;;1.23;;
4462;SDS011;2244;50.200;8.220;2024-02-23T06:28:04;27.10;;;1.70;;
4462;SDS011;2244;50.200;8.220;2024-02-23T06:30:33;23.50;;;1.30;;
4462;SDS011;2244;50.200;8.220;2024-02-23T06:33:00;22.80;;;1.40;;
4462;SDS011;2244;50.200;8.220;2024-02-23T06:35:28;20.70;;;1.30;;
4462;SDS011;2244;50.200;8.220;2024-02-23T06:38:01;22.37;;;1.40;;
4462;SDS011;2244;50.200;8.220;2024-02-23T06:40:25;23.70;;;1.70;;
4462;SDS011;2244;50.200;8.220;2024-02-23T06:42:57;23.67;;;1.60;;
4462;SDS011;2244;50.200;8.220;2024-02-23T06:45:26;24.10;;;1.57;;
4462;SDS011;2244;50.200;8.220;2024-02-23T06:47:53;27.83;;;1.63;;
4462;SDS011;2244;50.200;8.220;2024-02-23T06:50:21;22.93;;;1.77;;
4462;SDS011;2244;50.200;8.220;2024-02-23T06:52:49;25.20;;;1.80;;
4462;SDS011;2244;50.200;8.220;2024-02-23T06:55:16;20.70;;;1.50;;
4462;SDS011;2244;50.200;8.220;2024-02-23T06:57:46;25.03;;;1.33;;
4462;SDS011;2244;50.200;8.220;2024-02-23T07:00:13;21.43;;;1.47;;
4462;SDS011;2244;50.200;8.220;2024-02-23T07:02:41;22.17;;;1.60;;
4462;SDS011;2244;50.200;8.220;2024-02-23T07:05:08;25.43;;;1.93;;
4462;SDS011;2244;50.200;8.220;2024-02-23T07:07:36;22.60;;;1.43;;
4462;SDS011;2244;50.200;8.220;2024-02-23T07:10:04;21.47;;;1.73;;
4462;SDS011;2244;50.200;8.220;2024-02-23T07:12:32;22.40;;;2.10;;
4462;SDS011;2244;50.200;8.220;2024-02-23T07:14:59;23.37;;;1.93;;
4462;SDS011;2244;50.200;8.220;2024-02-23T07:17:27;24.67;;;2.03;;
4462;SDS011;2244;50.200;8.220;2024-02-23T07:19:55;22.20;;;1.50;;
4462;SDS011;2244;50.200;8.220;2024-02-23T07:22:24;23.60;;;2.10;;
4462;SDS011;2244;50.200;8.220;2024-02-23T07:24:52;22.13;;;1.73;;
4462;SDS011;2244;50.200;8.220;2024-02-23T07:27:19;24.70;;;1.80;;
4462;SDS011;2244;50.200;8.220;2024-02-23T07:29:47;24.47;;;2.67;;
4462;SDS011;2244;50.200;8.220;2024-02-23T07:32:15;23.77;;;2.33;;
4462;SDS011;2244;50.200;8.220;2024-02-23T07:34:43;24.83;;;2.07;;
4462;SDS011;2244;50.200;8.220;2024-02-23T07:37:16;24.50;;;2.23;;
4462;SDS011;2244;50.200;8.220;2024-02-23T07:39:44;24.37;;;2.23;;
4462;SDS011;2244;50.200;8.220;2024-02-23T07:42:11;22.50;;;2.27;;
4462;SDS011;2244;50.200;8.220;2024-02-23T07:44:40;24.27;;;2.20;;
4462;SDS011;2244;50.200;8.220;2024-02-23T07:47:08;23.97;;;2.30;;
4462;SDS011;2244;50.200;8.220;2024-02-23T07:49:35;24.40;;;2.53;;
4462;SDS011;2244;50.200;8.220;2024-02-23T07:52:03;24.50;;;1.90;;
4462;SDS011;2244;50.200;8.220;2024-02-23T07:54:30;25.53;;;2.00;;
4462;SDS011;2244;50.200;8.220;2024-02-23T07:56:58;24.83;;;2.10;;
4462;SDS011;2244;50.200;8.220;2024-02-23T07:59:25;26.10;;;2.00;;
4462;SDS011;2244;50.200;8.220;2024-02-23T08:01:54;25.43;;;2.53;;
4462;SDS011;2244;50.200;8.220;2024-02-23T08:04:22;26.60;;;2.27;;
4462;SDS011;2244;50.200;8.220;2024-02-23T08:06:50;24.60;;;2.03;;
4462;SDS011;2244;50.200;8.220;2024-02-23T08:09:17;23.53;;;1.60;;
4462;SDS011;2244;50.200;8.220;2024-02-23T08:11:45;24.57;;;1.80;;
4462;SDS011;2244;50.200;8.220;2024-02-23T08:14:13;23.20;;;2.00;;
4462;SDS011;2244;50.200;8.220;2024-02-23T08:16:40;30.73;;;1.97;;
4462;SDS011;2244;50.200;8.220;2024-02-23T08:19:08;24.40;;;2.30;;
4462;SDS011;2244;50.200;8.220;2024-02-23T08:21:35;24.70;;;2.27;;
4462;SDS011;2244;50.200;8.220;2024-02-23T08:24:03;23.20;;;1.70;;
4462;SDS011;2244;50.200;8.220;2024-02-23T08:26:30;24.57;;;1.70;;
4462;SDS011;2244;50.200;8.220;2024-02-23T08:28:58;22.97;;;1.60;;
4462;SDS011;2244;50.200;8.220;2024-02-23T08:31:25;25.73;;;2.10;;
4462;SDS011;2244;50.200;8.220;2024-02-23T08:33:53;24.23;;;2.90;;
4462;SDS011;2244;50.200;8.220;2024-02-23T08:36:20;25.27;;;2.57;;
4462;SDS011;2244;50.200;8.220;2024-02-23T08:38:47;25.87;;;2.17;;
4462;SDS011;2244;50.200;8.220;2024-02-23T08:41:15;23.00;;;1.70;;
4462;SDS011;2244;50.200;8.220;2024-02-23T08:43:42;29.07;;;2.13;;
4462;SDS011;2244;50.200;8.220;2024-02-23T08:46:10;24.70;;;1.70;;
4462;SDS011;2244;50.200;8.220;2024-02-23T08:48:43;27.67;;;2.40;;
4462;SDS011;2244;50.200;8.220;2024-02-23T08:51:11;21.80;;;1.80;;
4462;SDS011;2244;50.200;8.220;2024-02-23T08:53:39;26.60;;;2.10;;
4462;SDS011;2244;50.200;8.220;2024-02-23T08:56:07;27.10;;;2.20;;
4462;SDS011;2244;50.200;8.220;2024-02-23T08:58:34;24.63;;;2.03;;
4462;SDS011;2244;50.200;8.220;2024-02-23T09:01:02;28.43;;;2.23;;
4462;SDS011;2244;50.200;8.220;2024-02-23T09:03:30;26.23;;;2.43;;
4462;SDS011;2244;50.200;8.220;2024-02-23T09:05:58;29.37;;;2.10;;
4462;SDS011;2244;50.200;8.220;2024-02-23T09:08:26;26.13;;;1.87;;
4462;SDS011;2244;50.200;8.220;2024-02-23T09:10:53;25.33;;;2.40;;
4462;SDS011;2244;50.200;8.220;2024-02-23T09:13:21;24.27;;;1.90;;
4462;SDS011;2244;50.200;8.220;2024-02-23T09:15:48;28.53;;;2.00;;
4462;SDS011;2244;50.200;8.220;2024-02-23T09:18:16;26.20;;;1.70;;
4462;SDS011;2244;50.200;8.220;2024-02-23T09:20:43;22.50;;;1.80;;
4462;SDS011;2244;50.200;8.220;2024-02-23T09:23:11;25.87;;;1.90;;
4462;SDS011;2244;50.200;8.220;2024-02-23T09:25:38;25.60;;;1.77;;
4462;SDS011;2244;50.200;8.220;2024-02-23T09:28:08;23.50;;;1.80;;
4462;SDS011;2244;50.200;8.220;2024-02-23T09:30:37;22.77;;;2.00;;
4462;SDS011;2244;50.200;8.220;2024-02-23T09:33:04;26.77;;;2.20;;
4462;SDS011;2244;50.200;8.220;2024-02-23T09:35:32;27.17;;;2.10;;
4462;SDS011;2244;50.200;8.220;2024-02-23T09:38:00;32.23;;;2.40;;
4462;SDS011;2244;50.200;8.220;2024-02-23T09:40:27;24.47;;;2.07;;
4462;SDS011;2244;50.200;8.220;2024-02-23T09:42:56;23.53;;;1.60;;
4462;SDS011;2244;50.200;8.220;2024-02-23T09:45:26;24.30;;;2.13;;
4462;SDS011;2244;50.200;8.220;2024-02-23T09:47:55;27.90;;;1.73;;
4462;SDS011;2244;50.200;8.220;2024-02-23T09:50:24;24.90;;;2.27;;
4462;SDS011;2244;50.200;8.220;2024-02-23T09:52:52;28.60;;;2.17;;
4462;SDS011;2244;50.200;8.220;2024-02-23T09:55:23;23.53;;;1.70;;
4462;SDS011;2244;50.200;8.220;2024-02-23T09:57:51;22.63;;;1.60;;
4462;SDS011;2244;50.200;8.220;2024-02-23T10:00:21;25.40;;;2.43;;
4462;SDS011;2244;50.200;8.220;2024-02-23T10:02:50;22.97;;;1.93;;
4462;SDS011;2244;50.200;8.220;2024-02-23T10:05:18;25.00;;;2.00;;
4462;SDS011;2244;50.200;8.220;2024-02-23T10:07:46;23.70;;;1.97;;
4462;SDS011;2244;50.200;8.220;2024-02-23T10:10:14;21.93;;;1.40;;
4462;SDS011;2244;50.200;8.220;2024-02-23T10:12:41;22.90;;;1.60;;
4462;SDS011;2244;50.200;8.220;2024-02-23T10:15:09;24.73;;;1.83;;
4462;SDS011;2244;50.200;8.220;2024-02-23T10:17:37;29.53;;;2.93;;
4462;SDS011;2244;50.200;8.220;2024-02-23T10:20:05;24.83;;;1.90;;
4462;SDS011;2244;50.200;8.220;2024-02-23T10:22:32;22.73;;;1.50;;
4462;SDS011;2244;50.200;8.220;2024-02-23T10:25:01;28.23;;;1.97;;
4462;SDS011;2244;50.200;8.220;2024-02-23T10:27:29;23.43;;;2.00;;
4462;SDS011;2244;50.200;8.220;2024-02-23T10:29:57;27.80;;;2.93;;
4462;SDS011;2244;50.200;8.220;2024-02-23T10:32:25;25.93;;;2.20;;
4462;SDS011;2244;50.200;8.220;2024-02-23T10:34:54;26.83;;;2.17;;
4462;SDS011;2244;50.200;8.220;2024-02-23T10:37:22;22.60;;;1.43;;
4462;SDS011;2244;50.200;8.220;2024-02-23T10:39:52;29.00;;;2.20;;
4462;SDS011;2244;50.200;8.220;2024-02-23T10:42:20;23.53;;;1.57;;
4462;SDS011;2244;50.200;8.220;2024-02-23T10:47:21;25.83;;;1.57;;
4462;SDS011;2244;50.200;8.220;2024-02-23T10:49:52;26.80;;;1.93;;
4462;SDS011;2244;50.200;8.220;2024-02-23T10:52:26;23.53;;;1.40;;
4462;SDS011;2244;50.200;8.220;2024-02-23T10:54:54;23.60;;;1.77;;
4462;SDS011;2244;50.200;8.220;2024-02-23T10:57:22;27.37;;;1.70;;
4462;SDS011;2244;50.200;8.220;2024-02-23T10:59:50;25.83;;;2.33;;
4462;SDS011;2244;50.200;8.220;2024-02-23T11:02:18;24.70;;;1.73;;
4462;SDS011;2244;50.200;8.220;2024-02-23T11:04:48;27.03;;;2.07;;
4462;SDS011;2244;50.200;8.220;2024-02-23T11:07:19;25.50;;;1.73;;
4462;SDS011;2244;50.200;8.220;2024-02-23T11:09:54;26.43;;;2.20;;
4462;SDS011;2244;50.200;8.220;2024-02-23T11:12:23;24.90;;;1.60;;
4462;SDS011;2244;50.200;8.220;2024-02-23T11:14:57;24.30;;;2.00;;
4462;SDS011;2244;50.200;8.220;2024-02-23T11:17:22;22.97;;;1.53;;
4462;SDS011;2244;50.200;8.220;2024-02-23T11:19:53;26.23;;;1.70;;
4462;SDS011;2244;50.200;8.220;2024-02-23T11:22:30;23.40;;;1.60;;
4462;SDS011;2244;50.200;8.220;2024-02-23T11:24:59;24.73;;;1.60;;
4462;SDS011;2244;50.200;8.220;2024-02-23T11:27:24;23.40;;;1.87;;
4462;SDS011;2244;50.200;8.220;2024-02-23T11:30:02;24.50;;;1.50;;
4462;SDS011;2244;50.200;8.220;2024-02-23T11:32:41;23.53;;;1.40;;
4462;SDS011;2244;50.200;8.220;2024-02-23T11:35:11;21.60;;;1.30;;
4462;SDS011;2244;50.200;8.220;2024-02-23T11:37:48;24.23;;;1.60;;
4462;SDS011;2244;50.200;8.220;2024-02-23T11:40:19;23.37;;;1.60;;
4462;SDS011;2244;50.200;8.220;2024-02-23T11:42:46;25.33;;;1.90;;
4462;SDS011;2244;50.200;8.220;2024-02-23T11:45:14;23.50;;;1.67;;
4462;SDS011;2244;50.200;8.220;2024-02-23T11:47:42;26.33;;;1.67;;
4462;SDS011;2244;50.200;8.220;2024-02-23T11:50:10;25.33;;;1.90;;
4462;SDS011;2244;50.200;8.220;2024-02-23T11:52:38;28.27;;;1.63;;
4462;SDS011;2244;50.200;8.220;2024-02-23T11:55:05;26.03;;;1.70;;
4462;SDS011;2244;50.200;8.220;2024-02-23T11:57:35;24.30;;;1.63;;
4462;SDS011;2244;50.200;8.220;2024-02-23T12:00:05;29.60;;;2.20;;
4462;SDS011;2244;50.200;8.220;2024-02-23T12:02:37;23.40;;;2.00;;
4462;SDS011;2244;50.200;8.220;2024-02-23T12:05:04;24.03;;;1.70;;
4462;SDS011;2244;50.200;8.220;2024-02-23T12:07:32;23.90;;;1.30;;
4462;SDS011;2244;50.200;8.220;2024-02-23T12:10:01;24.50;;;2.17;;
4462;SDS011;2244;50.200;8.220;2024-02-23T12:12:30;23.50;;;1.70;;
4462;SDS011;2244;50.200;8.220;2024-02-23T12:14:58;25.20;;;1.47;;
4462;SDS011;2244;50.200;8.220;2024-02-23T12:17:26;23.57;;;1.40;;
4462;SDS011;2244;50.200;8.220;2024-02-23T12:20:00;25.70;;;1.70;;
4462;SDS011;2244;50.200;8.220;2024-02-23T12:22:28;26.60;;;1.40;;
4462;SDS011;2244;50.200;8.220;2024-02-23T12:24:58;24.07;;;1.60;;
4462;SDS011;2244;50.200;8.220;2024-02-23T12:27:26;21.73;;;1.37;;
4462;SDS011;2244;50.200;8.220;2024-02-23T12:29:55;25.53;;;1.20;;
4462;SDS011;2244;50.200;8.220;2024-02-23T12:32:23;21.63;;;1.20;;
4462;SDS011;2244;50.200;8.220;2024-02-23T12:34:52;25.97;;;1.70;;
4462;SDS011;2244;50.200;8.220;2024-02-23T12:37:21;22.80;;;1.30;;
4462;SDS011;2244;50.200;8.220;2024-02-23T12:39:49;21.97;;;1.40;;
4462;SDS011;2244;50.200;8.220;2024-02-23T12:42:18;21.70;;;1.27;;
4462;SDS011;2244;50.200;8.220;2024-02-23T12:44:46;24.77;;;1.60;;
4462;SDS011;2244;50.200;8.220;2024-02-23T12:47:14;26.17;;;1.40;;
4462;SDS011;2244;50.200;8.220;2024-02-23T12:49:41;23.67;;;1.37;;
4462;SDS011;2244;50.200;8.220;2024-02-23T12:52:19;35.70;;;1.90;;
4462;SDS011;2244;50.200;8.220;2024-02-23T12:54:46;21.77;;;1.47;;
4462;SDS011;2244;50.200;8.220;2024-02-23T12:57:15;21.87;;;1.30;;
4462;SDS011;2244;50.200;8.220;2024-02-23T12:59:43;23.73;;;1.70;;
4462;SDS011;2244;50.200;8.220;2024-02-23T13:02:10;22.50;;;1.50;;
4462;SDS011;2244;50.200;8.220;2024-02-23T13:04:39;21.90;;;1.30;;
4462;SDS011;2244;50.200;8.220;2024-02-23T13:07:07;22.30;;;1.40;;
4462;SDS011;2244;50.200;8.220;2024-02-23T13:09:34;25.80;;;1.40;;
4462;SDS011;2244;50.200;8.220;2024-02-23T13:12:01;27.00;;;1.40;;
4462;SDS011;2244;50.200;8.220;2024-02-23T13:14:29;24.60;;;1.50;;
4462;SDS011;2244;50.200;8.220;2024-02-23T13:16:57;23.40;;;1.73;;
4462;SDS011;2244;50.200;8.220;2024-02-23T13:19:24;23.17;;;1.40;;
4462;SDS011;2244;50.200;8.220;2024-02-23T13:21:52;23.80;;;1.90;;
4462;SDS011;2244;50.200;8.220;2024-02-23T13:24:19;24.13;;;1.90;;
4462;SDS011;2244;50.200;8.220;2024-02-23T13:26:47;23.27;;;1.50;;
4462;SDS011;2244;50.200;8.220;2024-02-23T13:29:15;25.03;;;2.30;;
4462;SDS011;2244;50.200;8.220;2024-02-23T13:31:42;23.20;;;1.80;;
4462;SDS011;2244;50.200;8.220;2024-02-23T13:34:10;23.70;;;1.67;;
4462;SDS011;2244;50.200;8.220;2024-02-23T13:36:39;23.07;;;1.80;;
4462;SDS011;2244;50.200;8.220;2024-02-23T13:39:07;22.73;;;1.70;;
4462;SDS011;2244;50.200;8.220;2024-02-23T13:41:35;28.10;;;2.00;;
4462;SDS011;2244;50.200;8.220;2024-02-23T13:44:05;24.00;;;1.53;;
4462;SDS011;2244;50.200;8.220;2024-02-23T13:46:35;24.90;;;1.77;;
4462;SDS011;2244;50.200;8.220;2024-02-23T13:49:02;25.67;;;2.13;;
4462;SDS011;2244;50.200;8.220;2024-02-23T13:51:31;26.83;;;1.80;;
4462;SDS011;2244;50.200;8.220;2024-02-23T13:53:59;21.90;;;1.30;;
4462;SDS011;2244;50.200;8.220;2024-02-23T13:56:27;22.63;;;1.47;;
4462;SDS011;2244;50.200;8.220;2024-02-23T14:01:38;22.53;;;1.30;;
4462;SDS011;2244;50.200;8.220;2024-02-23T14:04:06;21.77;;;1.43;;
4462;SDS011;2244;50.200;8.220;2024-02-23T14:06:34;23.33;;;1.53;;
4462;SDS011;2244;50.200;8.220;2024-02-23T14:09:02;23.80;;;2.07;;
4462;SDS011;2244;50.200;8.220;2024-02-23T14:11:30;21.77;;;1.50;;
4462;SDS011;2244;50.200;8.220;2024-02-23T14:13:57;23.70;;;1.70;;
4462;SDS011;2244;50.200;8.220;2024-02-23T14:16:25;22.63;;;1.50;;
4462;SDS011;2244;50.200;8.220;2024-02-23T14:18:52;21.47;;;1.57;;
4462;SDS011;2244;50.200;8.220;2024-02-23T14:21:20;22.70;;;1.37;;
4462;SDS011;2244;50.200;8.220;2024-02-23T14:23:49;22.80;;;1.37;;
4462;SDS011;2244;50.200;8.220;2024-02-23T14:26:16;23.27;;;1.53;;
4462;SDS011;2244;50.200;8.220;2024-02-23T14:28:43;22.70;;;1.50;;
4462;SDS011;2244;50.200;8.220;2024-02-23T14:31:11;23.90;;;1.60;;
4462;SDS011;2244;50.200;8.220;2024-02-23T14:33:39;22.50;;;1.23;;
4462;SDS011;2244;50.200;8.220;2024-02-23T14:36:08;21.40;;;1.23;;
4462;SDS011;2244;50.200;8.220;2024-02-23T14:38:41;22.93;;;1.43;;
4462;SDS011;2244;50.200;8.220;2024-02-23T14:41:09;22.90;;;1.60;;
4462;SDS011;2244;50.200;8.220;2024-02-23T14:43:37;24.57;;;1.60;;
4462;SDS011;2244;50.200;8.220;2024-02-23T14:46:04;20.27;;;1.10;;
4462;SDS011;2244;50.200;8.220;2024-02-23T14:48:31;21.90;;;1.40;;
4462;SDS011;2244;50.200;8.220;2024-02-23T14:50:59;22.57;;;1.37;;
4462;SDS011;2244;50.200;8.220;2024-02-23T14:53:28;25.10;;;1.60;;
4462;SDS011;2244;50.200;8.220;2024-02-23T14:55:56;21.27;;;1.00;;
4462;SDS011;2244;50.200;8.220;2024-02-23T14:58:23;21.27;;;1.37;;
4462;SDS011;2244;50.200;8.220;2024-02-23T15:00:51;21.20;;;1.17;;
4462;SDS011;2244;50.200;8.220;2024-02-23T15:03:18;23.27;;;1.77;;
4462;SDS011;2244;50.200;8.220;2024-02-23T15:05:46;24.80;;;1.77;;
4462;SDS011;2244;50.200;8.220;2024-02-23T15:08:13;26.33;;;1.50;;
4462;SDS011;2244;50.200;8.220;2024-02-23T15:10:41;22.70;;;1.43;;